Time;durP1;ratioP1;P1;durP2;ratioP2;P2;SDS_P1;SDS_P2;PMS_P1;PMS_P2;Temp;Humidity;BMP_temperature;BMP_pressure;BME280_temperature;BME280_humidity;BME280_pressure;Samples;Min_cycle;Max_cycle;Signal;HPM_P1;HPM_P2
2023/10/28 00:01:11;;;;;;;30.77;22.30;;;11.20;99.90;;;;;;5073350;28;20449;-70
2023/10/28 00:03:36;;;;;;;32.17;22.90;;;11.20;99.90;;;;;;5073368;28;20108;-70
2023/10/28 00:06:02;;;;;;;35.33;22.98;;;11.10;99.90;;;;;;5074824;28;20032;-70
2023/10/28 00:08:28;;;;;;;35.08;23.63;;;11.10;99.90;;;;;;5073211;28;20067;-70
2023/10/28 00:10:54;;;;;;;34.47;23.42;;;11.10;99.90;;;;;;5073189;28;20072;-70
2023/10/28 00:13:19;;;;;;;34.13;24.92;;;11.10;99.90;;;;;;5073175;28;20115;-70
2023/10/28 00:15:45;;;;;;;36.90;25.38;;;11.20;99.90;;;;;;5073371;28;20044;-70
2023/10/28 00:18:10;;;;;;;38.10;25.60;;;11.10;99.90;;;;;;5072996;28;20421;-70
2023/10/28 00:20:37;;;;;;;35.40;23.38;;;11.10;99.90;;;;;;5073258;28;20050;-70
2023/10/28 00:23:04;;;;;;;30.88;23.67;;;11.10;99.90;;;;;;5073196;28;20048;-70
2023/10/28 00:25:31;;;;;;;41.50;26.23;;;11.10;99.90;;;;;;5074187;28;20110;-69
2023/10/28 00:27:57;;;;;;;48.28;26.67;;;11.10;99.90;;;;;;5073054;28;20068;-69
2023/10/28 00:30:24;;;;;;;39.53;26.60;;;11.10;99.90;;;;;;5074307;28;20141;-70
2023/10/28 00:32:52;;;;;;;40.60;26.10;;;11.10;99.90;;;;;;5072952;28;20044;-70
2023/10/28 00:35:18;;;;;;;33.72;24.35;;;11.10;99.90;;;;;;5073985;28;20090;-70
2023/10/28 00:37:44;;;;;;;41.58;26.75;;;11.00;99.90;;;;;;5072584;28;20050;-69
2023/10/28 00:40:10;;;;;;;43.05;25.58;;;11.10;99.90;;;;;;5074142;28;20127;-71
2023/10/28 00:42:37;;;;;;;40.25;26.63;;;11.10;99.90;;;;;;5072522;28;20385;-71
2023/10/28 00:45:08;;;;;;;44.55;26.45;;;11.10;99.90;;;;;;5072538;28;20516;-71
2023/10/28 00:47:36;;;;;;;36.13;25.65;;;11.10;99.90;;;;;;5072489;28;20041;-70
2023/10/28 00:50:10;;;;;;;42.92;27.35;;;11.00;99.90;;;;;;5072711;28;20040;-70
2023/10/28 00:52:38;;;;;;;34.30;24.83;;;11.10;99.90;;;;;;5072426;28;20512;-70
2023/10/28 00:55:04;;;;;;;40.75;26.00;;;11.10;99.90;;;;;;5055713;28;20052;-70
2023/10/28 00:57:31;;;;;;;37.75;23.98;;;11.10;99.90;;;;;;5072297;28;20052;-70
2023/10/28 00:59:57;;;;;;;40.42;25.25;;;11.10;99.90;;;;;;5073451;28;20044;-70
2023/10/28 01:02:24;;;;;;;36.30;24.40;;;11.00;99.90;;;;;;5073372;28;20535;-70
2023/10/28 01:04:51;;;;;;;38.63;24.77;;;11.00;99.90;;;;;;5072203;28;20493;-71
2023/10/28 01:07:18;;;;;;;37.72;24.13;;;11.00;99.90;;;;;;5072436;28;20072;-71
2023/10/28 01:09:45;;;;;;;33.85;22.80;;;11.00;99.90;;;;;;5072035;28;20447;-69
2023/10/28 01:12:13;;;;;;;32.78;23.25;;;11.00;99.90;;;;;;5072053;28;20528;-70
2023/10/28 01:14:40;;;;;;;32.58;21.67;;;11.00;99.90;;;;;;5072066;28;20497;-70
2023/10/28 01:17:06;;;;;;;34.65;23.17;;;11.00;99.90;;;;;;5072303;28;20066;-70
2023/10/28 01:19:34;;;;;;;39.05;23.90;;;10.90;99.90;;;;;;5071834;28;20123;-70
2023/10/28 01:22:00;;;;;;;34.53;22.85;;;10.90;99.90;;;;;;5071964;28;20045;-70
2023/10/28 01:24:28;;;;;;;36.13;23.15;;;10.90;99.90;;;;;;5071937;28;20488;-70
2023/10/28 01:26:54;;;;;;;32.45;21.90;;;10.80;99.90;;;;;;5072143;28;20067;-70
2023/10/28 01:29:19;;;;;;;33.05;22.80;;;10.80;99.90;;;;;;5073050;28;20489;-70
2023/10/28 01:31:45;;;;;;;37.92;22.90;;;10.80;99.90;;;;;;5072138;28;20036;-70
2023/10/28 01:34:10;;;;;;;33.10;21.73;;;10.80;99.90;;;;;;5071819;28;20412;-70
2023/10/28 01:36:36;;;;;;;32.17;22.33;;;10.80;99.90;;;;;;5071812;28;20049;-70
2023/10/28 01:39:02;;;;;;;33.65;22.27;;;10.80;99.90;;;;;;5072970;28;20043;-69
2023/10/28 01:41:28;;;;;;;32.67;22.30;;;10.70;99.90;;;;;;5073261;28;20048;-70
2023/10/28 01:43:54;;;;;;;38.63;23.17;;;10.80;99.90;;;;;;5071216;28;20544;-70
2023/10/28 01:46:19;;;;;;;35.22;23.67;;;10.70;99.90;;;;;;5071983;28;20040;-70
2023/10/28 01:48:45;;;;;;;38.65;23.02;;;10.80;99.90;;;;;;5073333;28;20032;-70
2023/10/28 01:51:10;;;;;;;37.78;22.17;;;10.70;99.90;;;;;;5071708;28;20051;-70
2023/10/28 01:53:36;;;;;;;41.58;25.30;;;10.70;99.90;;;;;;5055006;28;20143;-70
2023/10/28 01:56:02;;;;;;;39.95;23.40;;;10.70;99.90;;;;;;5071690;28;20052;-70
2023/10/28 01:58:28;;;;;;;34.45;22.95;;;10.70;99.90;;;;;;5071477;28;20094;-70
2023/10/28 02:00:54;;;;;;;33.63;22.38;;;10.70;99.90;;;;;;5071737;28;20098;-70
2023/10/28 02:03:20;;;;;;;34.88;21.98;;;10.60;99.90;;;;;;5071829;28;20040;-70
2023/10/28 02:05:47;;;;;;;35.65;21.80;;;10.60;99.90;;;;;;5072831;28;20101;-70
2023/10/28 02:08:12;;;;;;;33.63;22.95;;;10.60;99.90;;;;;;5071433;28;20036;-69
2023/10/28 02:10:38;;;;;;;42.40;23.30;;;10.60;99.90;;;;;;5071727;28;20044;-70
2023/10/28 02:13:04;;;;;;;35.80;22.50;;;10.50;99.90;;;;;;5071482;28;20072;-70
2023/10/28 02:15:30;;;;;;;32.72;21.70;;;10.50;99.90;;;;;;5071716;28;20047;-70
2023/10/28 02:17:56;;;;;;;31.88;22.17;;;10.50;99.90;;;;;;5071252;28;20487;-70
2023/10/28 02:20:21;;;;;;;29.40;19.63;;;10.40;99.90;;;;;;5071403;28;20040;-70
2023/10/28 02:22:48;;;;;;;33.45;20.73;;;10.50;99.90;;;;;;5072883;28;20047;-70
2023/10/28 02:25:14;;;;;;;37.22;19.85;;;10.40;99.90;;;;;;5072556;28;20523;-70
2023/10/28 02:27:40;;;;;;;31.48;19.95;;;10.40;99.90;;;;;;5071271;28;20052;-69
2023/10/28 02:30:09;;;;;;;30.70;20.40;;;10.40;99.90;;;;;;5071331;28;20052;-70
2023/10/28 02:32:36;;;;;;;28.90;19.52;;;10.40;99.90;;;;;;5072552;28;20622;-70
2023/10/28 02:35:02;;;;;;;29.48;18.35;;;10.40;99.90;;;;;;5071527;28;20037;-70
2023/10/28 02:37:29;;;;;;;29.23;18.45;;;10.40;99.90;;;;;;5071538;28;20044;-70
2023/10/28 02:39:55;;;;;;;26.38;16.30;;;10.30;99.90;;;;;;5072403;28;20136;-70
2023/10/28 02:42:22;;;;;;;27.92;16.67;;;10.30;99.90;;;;;;5071100;28;20052;-70
2023/10/28 02:44:48;;;;;;;27.45;16.92;;;10.30;99.90;;;;;;5071147;28;20045;-70
2023/10/28 02:47:15;;;;;;;28.38;17.20;;;10.40;99.90;;;;;;5071107;28;20102;-70
2023/10/28 02:49:41;;;;;;;25.40;15.85;;;10.40;99.90;;;;;;5072377;28;20477;-70
2023/10/28 02:52:06;;;;;;;23.48;15.23;;;10.40;99.90;;;;;;5071134;28;20067;-70
2023/10/28 02:54:33;;;;;;;29.48;15.75;;;10.40;99.90;;;;;;5072309;28;20032;-70
2023/10/28 02:56:58;;;;;;;25.25;15.68;;;10.40;99.90;;;;;;5072823;28;20045;-70
2023/10/28 02:59:24;;;;;;;23.00;15.23;;;10.30;99.90;;;;;;5074804;28;20040;-70
2023/10/28 03:01:49;;;;;;;23.40;15.95;;;10.30;99.90;;;;;;5074474;28;20493;-70
2023/10/28 03:04:16;;;;;;;25.80;15.30;;;10.30;99.90;;;;;;5074829;28;20046;-70
2023/10/28 03:06:41;;;;;;;25.88;16.15;;;10.30;99.90;;;;;;5074449;28;20051;-70
2023/10/28 03:09:07;;;;;;;25.92;16.20;;;10.30;99.90;;;;;;5074298;28;20041;-69
2023/10/28 03:11:32;;;;;;;27.95;16.70;;;10.30;99.90;;;;;;5076724;28;20040;-70
2023/10/28 03:13:58;;;;;;;23.10;15.38;;;10.30;99.90;;;;;;5074359;28;20508;-70
2023/10/28 03:16:25;;;;;;;24.27;15.48;;;10.30;99.90;;;;;;5074321;28;20048;-70
2023/10/28 03:18:50;;;;;;;31.35;14.90;;;10.30;99.90;;;;;;5074240;28;20048;-70
2023/10/28 03:21:17;;;;;;;20.83;14.13;;;10.30;99.90;;;;;;5074132;28;20412;-70
2023/10/28 03:23:43;;;;;;;25.17;14.80;;;10.30;99.90;;;;;;5057491;28;20555;-70
2023/10/28 03:26:08;;;;;;;23.42;15.00;;;10.30;99.90;;;;;;5074480;28;20037;-71
2023/10/28 03:28:34;;;;;;;24.48;14.20;;;10.30;99.90;;;;;;5074053;28;20511;-70
2023/10/28 03:31:05;;;;;;;20.38;14.38;;;10.30;99.90;;;;;;5074005;28;20036;-70
2023/10/28 03:33:31;;;;;;;19.85;12.57;;;10.30;99.90;;;;;;5074568;28;20072;-70
2023/10/28 03:35:57;;;;;;;26.63;14.35;;;10.30;99.90;;;;;;5073924;28;20506;-70
2023/10/28 03:38:22;;;;;;;20.60;13.77;;;10.30;99.90;;;;;;5073847;28;20048;-70
2023/10/28 03:40:48;;;;;;;24.17;12.95;;;10.30;99.90;;;;;;5075020;28;20116;-70
2023/10/28 03:43:13;;;;;;;23.05;12.88;;;10.30;99.90;;;;;;5073816;28;20405;-70
2023/10/28 03:45:39;;;;;;;20.63;14.32;;;10.30;99.90;;;;;;5075272;28;20032;-70
2023/10/28 03:48:05;;;;;;;25.17;12.90;;;10.30;99.90;;;;;;5057233;28;20044;-70
2023/10/28 03:50:30;;;;;;;25.42;13.70;;;10.20;99.90;;;;;;5073670;28;20477;-71
2023/10/28 03:52:56;;;;;;;24.23;11.68;;;10.20;99.90;;;;;;5073868;28;20040;-71
2023/10/28 03:55:23;;;;;;;24.17;13.02;;;10.20;99.90;;;;;;5073552;28;20407;-70
2023/10/28 03:57:48;;;;;;;27.08;12.80;;;10.30;99.90;;;;;;5073438;28;20079;-70
2023/10/28 04:00:14;;;;;;;25.00;13.73;;;10.20;99.90;;;;;;5073762;28;20064;-70
2023/10/28 04:02:40;;;;;;;22.23;11.80;;;10.20;99.90;;;;;;5074564;28;20503;-70
2023/10/28 04:05:06;;;;;;;24.98;12.80;;;10.30;99.90;;;;;;5073349;28;20120;-69
2023/10/28 04:07:31;;;;;;;22.85;11.77;;;10.20;99.90;;;;;;5072885;28;20037;-70
2023/10/28 04:10:03;;;;;;;20.45;11.35;;;10.20;99.90;;;;;;5073451;28;20127;-70
2023/10/28 04:12:30;;;;;;;26.83;13.18;;;10.20;99.90;;;;;;5074548;28;20079;-70
2023/10/28 04:14:55;;;;;;;27.15;13.57;;;10.30;99.90;;;;;;5074439;28;20493;-70
2023/10/28 04:17:24;;;;;;;21.52;12.32;;;10.20;99.90;;;;;;5073192;28;20314;-70
2023/10/28 04:19:50;;;;;;;22.50;13.80;;;10.30;99.90;;;;;;5072900;28;20041;-70
2023/10/28 04:22:15;;;;;;;24.85;13.05;;;10.30;99.90;;;;;;5074258;28;20040;-70
2023/10/28 04:24:41;;;;;;;26.40;14.15;;;10.30;99.90;;;;;;5074235;28;20038;-70
2023/10/28 04:27:07;;;;;;;25.10;13.50;;;10.30;99.90;;;;;;5074734;28;20048;-70
2023/10/28 04:29:32;;;;;;;24.42;13.60;;;10.30;99.90;;;;;;5072811;28;20209;-70
2023/10/28 04:31:58;;;;;;;25.80;13.60;;;10.30;99.90;;;;;;5072831;28;20045;-70
2023/10/28 04:34:24;;;;;;;27.88;13.10;;;10.30;99.90;;;;;;5072745;28;20036;-70
2023/10/28 04:36:49;;;;;;;32.25;15.27;;;10.30;99.90;;;;;;5072712;28;20574;-70
2023/10/28 04:39:15;;;;;;;26.42;13.65;;;10.30;99.90;;;;;;5072904;28;20072;-70
2023/10/28 04:41:41;;;;;;;28.42;14.20;;;10.30;99.90;;;;;;5074108;28;20511;-70
2023/10/28 04:44:06;;;;;;;25.00;14.82;;;10.40;99.90;;;;;;5072614;28;20041;-70
2023/10/28 04:46:32;;;;;;;27.25;14.07;;;10.30;99.90;;;;;;5072568;28;20512;-70
2023/10/28 04:48:58;;;;;;;28.55;15.20;;;10.40;99.90;;;;;;5072452;28;20066;-69
2023/10/28 04:51:27;;;;;;;27.98;14.73;;;10.40;99.90;;;;;;5072467;28;20053;-70
2023/10/28 04:53:52;;;;;;;27.65;14.82;;;10.40;99.90;;;;;;5072662;28;20570;-70
2023/10/28 04:56:18;;;;;;;29.95;14.23;;;10.40;99.90;;;;;;5072355;28;20126;-70
2023/10/28 04:58:44;;;;;;;25.58;15.23;;;10.40;99.90;;;;;;5072273;28;20080;-70
2023/10/28 05:01:09;;;;;;;26.20;13.63;;;10.50;99.90;;;;;;5073454;28;20045;-70
2023/10/28 05:03:35;;;;;;;32.45;14.80;;;10.50;99.90;;;;;;5072555;28;20041;-70
2023/10/28 05:06:00;;;;;;;36.42;15.57;;;10.50;99.90;;;;;;5072246;28;20470;-70
2023/10/28 05:08:27;;;;;;;26.40;15.35;;;10.50;99.90;;;;;;5073375;28;20044;-70
2023/10/28 05:10:53;;;;;;;31.48;14.00;;;10.50;99.90;;;;;;5072167;28;20166;-70
2023/10/28 05:13:18;;;;;;;27.48;15.10;;;10.50;99.90;;;;;;5072116;28;20123;-70
2023/10/28 05:15:44;;;;;;;25.88;14.95;;;10.50;99.90;;;;;;5072347;28;20049;-70
2023/10/28 05:18:09;;;;;;;28.52;15.48;;;10.50;99.90;;;;;;5071971;28;20040;-70
2023/10/28 05:20:35;;;;;;;33.78;14.68;;;10.50;99.90;;;;;;5072176;28;20491;-70
2023/10/28 05:23:01;;;;;;;24.67;14.63;;;10.50;99.90;;;;;;5073229;28;20046;-70
2023/10/28 05:25:27;;;;;;;29.13;14.68;;;10.50;99.90;;;;;;5073780;28;20033;-70
2023/10/28 05:27:52;;;;;;;29.45;15.02;;;10.50;99.90;;;;;;5071910;28;20063;-69
2023/10/28 05:30:18;;;;;;;25.85;14.25;;;10.50;99.90;;;;;;5072199;28;20048;-70
2023/10/28 05:32:44;;;;;;;27.40;14.00;;;10.60;99.90;;;;;;5073635;28;20509;-70
2023/10/28 05:35:11;;;;;;;23.02;13.63;;;10.50;99.90;;;;;;5072137;28;20120;-70
2023/10/28 05:37:37;;;;;;;24.33;12.88;;;10.50;99.90;;;;;;5071861;28;20049;-70
2023/10/28 05:40:03;;;;;;;27.77;13.52;;;10.60;99.90;;;;;;5072503;28;20040;-70
2023/10/28 05:42:29;;;;;;;18.90;12.52;;;10.60;99.90;;;;;;5071726;28;20041;-70
2023/10/28 05:44:54;;;;;;;17.60;11.05;;;10.60;99.90;;;;;;5073234;28;20040;-70
2023/10/28 05:47:20;;;;;;;26.23;13.07;;;10.60;99.90;;;;;;5072984;28;20040;-70
2023/10/28 05:49:45;;;;;;;21.75;12.18;;;10.60;99.90;;;;;;5071646;28;20500;-70
2023/10/28 05:52:12;;;;;;;22.60;12.07;;;10.60;99.90;;;;;;5071682;28;20040;-70
2023/10/28 05:54:38;;;;;;;27.80;12.23;;;10.60;99.90;;;;;;5071645;28;20458;-70
2023/10/28 05:57:05;;;;;;;21.25;11.90;;;10.60;99.90;;;;;;5072876;28;20037;-70
2023/10/28 05:59:31;;;;;;;19.90;12.20;;;10.60;99.90;;;;;;5071837;28;20052;-70
2023/10/28 06:01:56;;;;;;;22.45;11.43;;;10.60;99.90;;;;;;5071486;28;20063;-71
2023/10/28 06:04:22;;;;;;;18.92;10.60;;;10.60;99.90;;;;;;5071560;28;20048;-71
2023/10/28 06:06:48;;;;;;;20.42;10.75;;;10.70;99.90;;;;;;5071525;28;20041;-70
2023/10/28 06:09:15;;;;;;;17.55;10.70;;;10.60;99.90;;;;;;5072727;28;20040;-70
2023/10/28 06:11:41;;;;;;;19.98;11.95;;;10.60;99.90;;;;;;5071551;28;20056;-70
2023/10/28 06:14:07;;;;;;;21.52;11.38;;;10.70;99.90;;;;;;5071610;28;20121;-70
2023/10/28 06:16:34;;;;;;;19.38;10.48;;;10.70;99.90;;;;;;5071806;28;20055;-70
2023/10/28 06:19:00;;;;;;;19.85;11.15;;;10.70;99.90;;;;;;5071217;28;20105;-70
2023/10/28 06:21:26;;;;;;;21.90;10.88;;;10.70;99.90;;;;;;5072652;28;20427;-70
2023/10/28 06:23:51;;;;;;;16.73;9.60;;;10.70;99.90;;;;;;5071681;28;20043;-70
2023/10/28 06:26:18;;;;;;;15.15;8.77;;;10.70;99.90;;;;;;5071442;28;20116;-70
2023/10/28 06:28:45;;;;;;;18.80;10.35;;;10.70;99.90;;;;;;5072871;28;20488;-70
2023/10/28 06:31:10;;;;;;;17.95;9.48;;;10.70;99.90;;;;;;5073544;28;20463;-70
2023/10/28 06:33:36;;;;;;;18.58;9.27;;;10.70;99.90;;;;;;5075158;28;20040;-71
2023/10/28 06:36:02;;;;;;;18.95;10.10;;;10.70;99.90;;;;;;5075119;28;20044;-70
2023/10/28 06:38:29;;;;;;;15.63;8.75;;;10.70;99.90;;;;;;5076613;28;20032;-70
2023/10/28 06:40:54;;;;;;;17.33;9.48;;;10.70;99.90;;;;;;5074981;28;20052;-70
2023/10/28 06:43:22;;;;;;;13.20;8.43;;;10.70;99.90;;;;;;5076204;28;20040;-70
2023/10/28 06:45:47;;;;;;;11.20;7.88;;;10.70;99.90;;;;;;5074877;28;20485;-70
2023/10/28 06:48:15;;;;;;;12.77;8.10;;;10.70;99.90;;;;;;5076584;28;20052;-70
2023/10/28 06:50:41;;;;;;;15.70;8.35;;;10.70;99.90;;;;;;5074822;28;20040;-70
2023/10/28 06:53:09;;;;;;;17.50;7.90;;;10.70;99.90;;;;;;5074813;28;20045;-70
2023/10/28 06:55:34;;;;;;;12.98;7.18;;;10.70;99.90;;;;;;5075992;28;20044;-70
2023/10/28 06:58:00;;;;;;;11.85;6.68;;;10.80;99.90;;;;;;5074639;28;20036;-69
2023/10/28 07:00:28;;;;;;;10.32;7.53;;;10.80;99.90;;;;;;5074656;28;20040;-70
2023/10/28 07:02:55;;;;;;;14.38;7.80;;;10.70;99.90;;;;;;5074694;28;20398;-70
2023/10/28 07:05:24;;;;;;;14.13;7.43;;;10.80;99.90;;;;;;5076258;28;20071;-71
2023/10/28 07:07:50;;;;;;;13.60;7.10;;;10.70;99.90;;;;;;5074804;28;20115;-70
2023/10/28 07:10:16;;;;;;;10.93;7.05;;;10.80;99.90;;;;;;5076611;28;20108;-70
2023/10/28 07:12:42;;;;;;;15.32;6.93;;;10.80;99.90;;;;;;5074437;28;20060;-70
2023/10/28 07:15:11;;;;;;;10.68;6.72;;;10.80;99.90;;;;;;5074324;28;20074;-70
2023/10/28 07:17:39;;;;;;;11.25;7.00;;;10.80;99.90;;;;;;5074503;28;20393;-70
2023/10/28 07:20:06;;;;;;;11.73;6.55;;;10.80;99.90;;;;;;5074136;28;20051;-70
2023/10/28 07:22:31;;;;;;;12.85;6.25;;;10.80;99.90;;;;;;5075450;28;20116;-70
2023/10/28 07:24:57;;;;;;;10.23;6.03;;;10.80;99.90;;;;;;5075671;28;20461;-70
2023/10/28 07:27:23;;;;;;;8.10;5.57;;;10.80;99.90;;;;;;5075640;28;20036;-70
2023/10/28 07:29:48;;;;;;;14.43;5.90;;;10.80;99.90;;;;;;5074228;28;20115;-70
2023/10/28 07:32:14;;;;;;;10.65;5.63;;;10.80;99.90;;;;;;5074269;28;20489;-70
2023/10/28 07:34:40;;;;;;;12.38;6.07;;;10.80;99.90;;;;;;5073979;28;20405;-70
2023/10/28 07:37:06;;;;;;;9.75;5.60;;;10.80;99.90;;;;;;5073936;28;20049;-70
2023/10/28 07:39:32;;;;;;;8.80;5.50;;;10.80;99.90;;;;;;5073837;28;20047;-70
2023/10/28 07:41:58;;;;;;;8.23;5.15;;;10.90;99.90;;;;;;5074473;28;20033;-70
2023/10/28 07:44:24;;;;;;;8.38;5.68;;;10.90;99.90;;;;;;5075579;28;20481;-70
2023/10/28 07:46:49;;;;;;;8.75;4.78;;;10.90;99.90;;;;;;5075020;28;20134;-70
2023/10/28 07:49:15;;;;;;;7.95;5.55;;;10.90;99.90;;;;;;5073688;28;20044;-69
2023/10/28 07:51:41;;;;;;;10.27;4.90;;;10.90;99.90;;;;;;5073701;28;20098;-70
2023/10/28 07:54:07;;;;;;;9.00;4.93;;;11.00;99.90;;;;;;5073694;28;20109;-70
2023/10/28 07:56:33;;;;;;;12.10;5.35;;;11.00;99.90;;;;;;5075150;28;20037;-70
2023/10/28 07:59:02;;;;;;;8.35;5.25;;;11.00;99.90;;;;;;5073478;28;20067;-69
2023/10/28 08:01:29;;;;;;;7.43;4.50;;;11.10;99.90;;;;;;5073476;28;20079;-73
2023/10/28 08:03:55;;;;;;;9.10;5.28;;;11.10;99.90;;;;;;5073772;28;20052;-74
2023/10/28 08:06:22;;;;;;;8.68;5.00;;;11.10;99.90;;;;;;5073689;28;20508;-73
2023/10/28 08:08:47;;;;;;;9.18;5.38;;;11.10;99.90;;;;;;5073608;28;20029;-73
2023/10/28 08:11:13;;;;;;;8.35;4.43;;;11.10;99.90;;;;;;5073576;28;20374;-70
2023/10/28 08:13:40;;;;;;;8.15;4.38;;;11.10;99.90;;;;;;5073302;28;20403;-70
2023/10/28 08:16:12;;;;;;;15.45;4.93;;;11.10;99.90;;;;;;5074723;28;20520;-70
2023/10/28 08:18:40;;;;;;;9.35;4.90;;;11.10;99.90;;;;;;5073298;28;20130;-69
2023/10/28 08:21:07;;;;;;;9.00;4.65;;;11.10;99.90;;;;;;5073268;28;20055;-70
2023/10/28 08:23:32;;;;;;;9.63;4.43;;;11.20;99.90;;;;;;5056732;28;20063;-70
2023/10/28 08:25:58;;;;;;;11.20;4.95;;;11.20;99.90;;;;;;5073033;28;20507;-70
2023/10/28 08:28:26;;;;;;;9.48;4.40;;;11.20;99.90;;;;;;5074341;28;20036;-69
2023/10/28 08:30:52;;;;;;;10.02;4.20;;;11.20;99.90;;;;;;5072939;28;20040;-71
2023/10/28 08:33:20;;;;;;;6.85;3.80;;;11.30;99.90;;;;;;5074117;28;20040;-70
2023/10/28 08:35:47;;;;;;;7.30;4.00;;;11.20;99.90;;;;;;5072829;28;20489;-70
2023/10/28 08:38:16;;;;;;;10.10;3.67;;;11.30;99.90;;;;;;5072892;28;20036;-70
2023/10/28 08:40:45;;;;;;;9.45;3.97;;;11.30;99.90;;;;;;5073875;28;20040;-70
2023/10/28 08:43:11;;;;;;;10.60;4.80;;;11.30;99.90;;;;;;5072708;28;20040;-70
2023/10/28 08:45:39;;;;;;;6.95;4.00;;;11.30;99.90;;;;;;5072673;28;20048;-70
2023/10/28 08:48:05;;;;;;;6.30;3.72;;;11.30;99.90;;;;;;5072505;28;20041;-69
2023/10/28 08:50:33;;;;;;;7.07;3.42;;;11.30;99.90;;;;;;5074420;28;20051;-70
2023/10/28 08:53:03;;;;;;;10.05;3.85;;;11.30;99.90;;;;;;5072498;28;20472;-70
2023/10/28 08:55:30;;;;;;;7.32;3.60;;;11.30;99.90;;;;;;5073685;28;20556;-70
2023/10/28 08:57:57;;;;;;;9.23;3.65;;;11.30;99.90;;;;;;5073589;28;20067;-70
2023/10/28 09:00:26;;;;;;;9.35;3.75;;;11.30;99.90;;;;;;5072921;28;20107;-70
2023/10/28 09:02:56;;;;;;;8.60;3.50;;;11.30;99.90;;;;;;5072276;28;20041;-70
2023/10/28 09:05:21;;;;;;;8.93;4.10;;;11.30;99.90;;;;;;5073619;28;20093;-69
2023/10/28 09:07:47;;;;;;;8.68;3.80;;;11.30;99.90;;;;;;5072203;28;20036;-69
2023/10/28 09:10:14;;;;;;;8.15;3.42;;;11.40;99.90;;;;;;5072511;28;20045;-69
2023/10/28 09:12:41;;;;;;;7.57;3.85;;;11.40;99.90;;;;;;5055571;28;20496;-69
2023/10/28 09:15:09;;;;;;;8.95;4.22;;;11.50;99.90;;;;;;5072146;28;20566;-69
2023/10/28 09:17:35;;;;;;;8.63;3.90;;;11.50;99.90;;;;;;5072383;28;20052;-69
2023/10/28 09:20:05;;;;;;;11.70;4.47;;;11.60;99.90;;;;;;5071820;28;20040;-69
2023/10/28 09:22:32;;;;;;;10.68;3.92;;;11.60;99.90;;;;;;5073580;28;20067;-69
2023/10/28 09:24:58;;;;;;;8.32;4.00;;;11.60;99.90;;;;;;5072039;28;20139;-69
2023/10/28 09:27:24;;;;;;;8.02;3.47;;;11.60;99.90;;;;;;5073531;28;20049;-70
2023/10/28 09:29:49;;;;;;;8.55;4.00;;;11.60;99.90;;;;;;5073309;28;20036;-69
2023/10/28 09:32:18;;;;;;;8.73;3.70;;;11.60;99.90;;;;;;5071953;28;20090;-69
2023/10/28 09:34:43;;;;;;;13.32;4.00;;;11.70;99.90;;;;;;5071958;28;20052;-69
2023/10/28 09:37:09;;;;;;;9.88;3.85;;;11.70;99.90;;;;;;5073061;28;20128;-69
2023/10/28 09:39:36;;;;;;;6.18;3.70;;;11.80;99.90;;;;;;5071802;28;20044;-69
2023/10/28 09:42:03;;;;;;;8.80;3.70;;;11.80;99.90;;;;;;5071796;28;20037;-69
2023/10/28 09:44:29;;;;;;;8.27;3.88;;;11.80;99.90;;;;;;5072032;28;20083;-69
2023/10/28 09:47:05;;;;;;;7.68;4.10;;;11.90;99.90;;;;;;5072071;28;20090;-69
2023/10/28 09:49:31;;;;;;;10.00;4.00;;;12.00;99.90;;;;;;5071751;28;20036;-69
2023/10/28 09:52:18;;;;;;;7.55;3.72;;;12.00;99.90;;;;;;5072041;28;20410;-69
2023/10/28 09:54:48;;;;;;;4.68;2.88;;;12.00;99.90;;;;;;5072095;28;20079;-69
2023/10/28 09:57:13;;;;;;;12.18;3.50;;;12.00;99.90;;;;;;5071680;28;20408;-69
2023/10/28 09:59:44;;;;;;;9.52;3.42;;;12.00;99.90;;;;;;5071915;28;20044;-69
2023/10/28 10:02:44;;;;;;;6.90;2.90;;;12.00;99.90;;;;;;5071677;28;20044;-69
2023/10/28 10:05:21;;;;;;;8.90;3.13;;;11.90;99.90;;;;;;5072570;28;20045;-69
2023/10/28 10:07:46;;;;;;;8.50;3.75;;;11.90;99.90;;;;;;5075691;28;20040;-69
2023/10/28 10:10:13;;;;;;;5.93;2.97;;;11.90;99.90;;;;;;5076905;28;20386;-69
2023/10/28 10:12:42;;;;;;;12.35;3.92;;;11.90;99.90;;;;;;5075565;28;20044;-69
2023/10/28 10:15:13;;;;;;;7.03;3.08;;;11.90;99.90;;;;;;5075932;28;20048;-69
2023/10/28 10:17:52;;;;;;;9.65;3.25;;;11.90;99.90;;;;;;5075726;28;20051;-69
2023/10/28 10:20:25;;;;;;;15.98;3.58;;;11.90;99.90;;;;;;5076722;28;20037;-69
2023/10/28 10:23:02;;;;;;;10.38;3.50;;;12.00;99.90;;;;;;5075001;28;20501;-69
2023/10/28 10:25:46;;;;;;;10.98;3.08;;;12.10;99.90;;;;;;5075412;28;20045;-69
2023/10/28 10:28:14;;;;;;;11.63;3.40;;;12.00;99.90;;;;;;5075220;28;20044;-69
2023/10/28 10:30:41;;;;;;;9.63;3.30;;;12.00;99.90;;;;;;5075256;28;20566;-69
2023/10/28 10:33:07;;;;;;;8.88;2.70;;;12.10;99.90;;;;;;5075210;28;20044;-70
2023/10/28 10:35:34;;;;;;;9.50;3.05;;;12.10;99.90;;;;;;5076422;28;20040;-69
2023/10/28 10:38:02;;;;;;;8.02;2.92;;;12.10;99.90;;;;;;5075011;28;20044;-69
2023/10/28 10:40:31;;;;;;;9.63;2.75;;;12.10;99.90;;;;;;5076516;28;20066;-69
2023/10/28 10:43:03;;;;;;;9.05;3.17;;;12.10;99.90;;;;;;5074927;28;20036;-69
2023/10/28 10:45:28;;;;;;;7.90;3.10;;;12.20;99.90;;;;;;5074997;28;20044;-69
2023/10/28 10:47:54;;;;;;;7.03;2.80;;;12.20;99.90;;;;;;5076385;28;20101;-68
2023/10/28 10:50:21;;;;;;;10.05;2.72;;;12.30;99.90;;;;;;5074874;28;20033;-69
2023/10/28 10:52:49;;;;;;;8.88;2.90;;;12.30;99.90;;;;;;5075136;28;20048;-69
2023/10/28 10:55:24;;;;;;;6.90;2.88;;;12.40;99.90;;;;;;5076033;28;20051;-69
2023/10/28 10:57:50;;;;;;;6.38;2.30;;;12.40;99.90;;;;;;5074695;28;20036;-68
2023/10/28 11:00:17;;;;;;;8.40;2.35;;;12.40;99.90;;;;;;5074738;28;20075;-69
2023/10/28 11:02:44;;;;;;;6.80;2.47;;;12.40;99.90;;;;;;5075852;28;20032;-70
2023/10/28 11:05:10;;;;;;;8.88;2.53;;;12.50;99.90;;;;;;5074587;28;20055;-70
2023/10/28 11:07:36;;;;;;;7.03;2.60;;;12.50;99.90;;;;;;5075793;28;20448;-69
2023/10/28 11:10:04;;;;;;;11.02;3.20;;;12.50;99.90;;;;;;5075693;28;20041;-69
2023/10/28 11:12:30;;;;;;;7.03;2.63;;;12.60;99.90;;;;;;5075735;28;20128;-69
2023/10/28 11:14:56;;;;;;;8.15;2.70;;;12.60;99.90;;;;;;5074722;28;20119;-69
2023/10/28 11:17:23;;;;;;;6.07;2.00;;;12.60;99.90;;;;;;5074410;28;20036;-69
2023/10/28 11:19:50;;;;;;;9.13;2.65;;;12.60;99.90;;;;;;5074475;28;20393;-69
2023/10/28 11:22:19;;;;;;;8.80;2.58;;;12.60;99.90;;;;;;5074242;28;20124;-70
2023/10/28 11:24:44;;;;;;;6.50;2.10;;;12.60;99.90;;;;;;5074244;28;20464;-70
2023/10/28 11:27:19;;;;;;;7.25;2.50;;;12.70;99.90;;;;;;5074247;28;20044;-69
2023/10/28 11:29:45;;;;;;;5.30;2.00;;;12.80;99.90;;;;;;5057664;28;20044;-69
2023/10/28 11:32:11;;;;;;;6.05;2.25;;;12.80;99.90;;;;;;5074213;28;20051;-69
2023/10/28 11:34:40;;;;;;;6.28;2.60;;;12.80;99.90;;;;;;5074352;28;20044;-69
2023/10/28 11:37:09;;;;;;;9.50;2.08;;;12.90;99.90;;;;;;5075272;28;20527;-69
2023/10/28 11:39:36;;;;;;;6.72;2.40;;;12.90;99.90;;;;;;5073866;28;20489;-69
2023/10/28 11:42:14;;;;;;;10.77;2.30;;;12.90;99.90;;;;;;5073858;28;20512;-69
2023/10/28 11:44:40;;;;;;;7.32;2.20;;;12.90;99.90;;;;;;5075296;28;20045;-70
2023/10/28 11:47:08;;;;;;;9.77;2.22;;;12.90;99.90;;;;;;5074125;28;20044;-70
2023/10/28 11:49:34;;;;;;;9.45;2.38;;;13.00;99.90;;;;;;5075007;28;20040;-69
2023/10/28 11:52:00;;;;;;;8.60;2.13;;;13.00;99.90;;;;;;5057078;28;20040;-69
2023/10/28 11:54:26;;;;;;;6.22;1.88;;;13.00;99.90;;;;;;5075248;28;20107;-69
2023/10/28 11:56:52;;;;;;;7.53;2.10;;;13.00;99.90;;;;;;5073673;28;20503;-69
2023/10/28 11:59:17;;;;;;;6.05;1.80;;;13.10;99.90;;;;;;5073551;28;20040;-69
2023/10/28 12:01:43;;;;;;;5.78;2.38;;;13.10;99.90;;;;;;5073700;28;20037;-69
2023/10/28 12:04:09;;;;;;;7.45;2.17;;;13.10;99.90;;;;;;5074762;28;20105;-69
2023/10/28 12:06:35;;;;;;;9.68;2.25;;;13.10;99.90;;;;;;5074688;28;20036;-69
2023/10/28 12:09:04;;;;;;;6.20;2.45;;;13.10;99.90;;;;;;5073350;28;20461;-69
2023/10/28 12:11:31;;;;;;;5.20;1.85;;;13.00;99.90;;;;;;5074662;28;20044;-69
2023/10/28 12:13:57;;;;;;;9.10;2.05;;;13.00;99.90;;;;;;5074845;28;20076;-69
2023/10/28 12:16:25;;;;;;;10.75;2.42;;;12.90;99.90;;;;;;5074544;28;20071;-69
2023/10/28 12:18:51;;;;;;;10.80;2.17;;;13.00;99.90;;;;;;5072981;28;20047;-68
2023/10/28 12:21:18;;;;;;;9.10;2.00;;;13.00;99.90;;;;;;5073078;28;20041;-69
2023/10/28 12:23:44;;;;;;;5.70;2.17;;;13.00;99.90;;;;;;5073118;28;20048;-69
2023/10/28 12:26:13;;;;;;;7.95;2.00;;;13.10;99.90;;;;;;5073067;28;20036;-69
2023/10/28 12:28:38;;;;;;;7.05;1.92;;;13.10;99.90;;;;;;5072672;28;20044;-69
2023/10/28 12:31:05;;;;;;;7.43;1.95;;;13.10;99.90;;;;;;5074222;28;20040;-69
2023/10/28 12:33:31;;;;;;;8.80;2.03;;;13.10;99.90;;;;;;5074205;28;20032;-68